Temp: 4.9°C   Baro: 1026.7mb
  Wind: 0.9mph   Dir: WSW (254°)
  Rain: 0.0mm (0.0mm/hr)
  Humidity: 88%

Historic data

Bath Spa Weather Station Historical Data
Daily Summary for November 29, 2022 Units:  Metric    English   Both
Daily Weekly Monthly Yearly Custom
  High: Low: Average:
Temperature: 4.5 °C 1.6 °C 2.9 °C
Dew Point: 3.9 °C 0.8 °C 2.3 °C
Humidity: 97% 94% 96%
Wind Speed: 8.2km/h 0km/h 2.1km/h
Wind Gust: 14.5km/h - -
Wind- - SE
Pressure: 1023.2 hPa 1016.1 hPa -
Precipitation: 0.25 mm    
Historical Graphs
 
 
Tabular Data for November 29, 2022
Time Temperature Dew Point Pressure Wind Wind Speed Wind Gust Humidity Rainfall Rate (Hourly) solar
00:09 1.9 °C 1.1 °C 1016.1 hPa Calm     94% 0 mm 0 W/m2
00:14 2 °C 1.1 °C 1016.1 hPa Calm     94% 0 mm 0 W/m2
00:19 2 °C 1.1 °C 1016.1 hPa Calm     94% 0 mm 0 W/m2
00:24 1.9 °C 1 °C 1016.1 hPa Calm     94% 0 mm 0 W/m2
00:29 1.9 °C 1 °C 1016.1 hPa Calm     94% 0 mm 0 W/m2
00:34 1.8 °C 0.9 °C 1016.1 hPa WSW 0.8 km/h 1.6 km/h 94% 0 mm 0 W/m2
00:39 1.9 °C 1 °C 1016.1 hPa WSW 0.6 km/h 3.2 km/h 94% 0 mm 0 W/m2
00:44 1.9 °C 1 °C 1016.1 hPa Calm     94% 0 mm 0 W/m2
00:49 1.8 °C 0.9 °C 1016.1 hPa Calm     94% 0 mm 0 W/m2
00:54 1.7 °C 0.8 °C 1016.1 hPa Calm     94% 0 mm 0 W/m2
00:59 1.8 °C 0.8 °C 1016.1 hPa WSW 0.3 km/h 3.2 km/h 94% 0 mm 0 W/m2
01:04 1.8 °C 0.9 °C 1016.1 hPa Calm   3.2 km/h 94% 0 mm 0 W/m2
01:09 1.9 °C 1 °C 1016.5 hPa Calm     94% 0 mm 0 W/m2
01:14 2 °C 1.1 °C 1016.5 hPa Calm     94% 0 mm 0 W/m2
01:19 2.1 °C 1.2 °C 1016.5 hPa Calm     94% 0 mm 0 W/m2
01:24 2.1 °C 1.2 °C 1016.5 hPa Calm     94% 0 mm 0 W/m2
01:29 2.1 °C 1.2 °C 1016.5 hPa Calm     94% 0 mm 0 W/m2
01:34 2.1 °C 1.2 °C 1016.8 hPa Calm   1.6 km/h 94% 0 mm 0 W/m2
01:39 2.2 °C 1.3 °C 1016.8 hPa Calm   1.6 km/h 94% 0 mm 0 W/m2
01:44 2.2 °C 1.3 °C 1016.8 hPa Calm     94% 0 mm 0 W/m2
01:49 2.1 °C 1.2 °C 1016.8 hPa Calm     94% 0 mm 0 W/m2
01:54 2.1 °C 1.2 °C 1016.8 hPa Calm     94% 0 mm 0 W/m2
01:59 1.9 °C 1.1 °C 1016.8 hPa Calm     94% 0 mm 0 W/m2
02:04 1.9 °C 1 °C 1016.8 hPa Calm     94% 0 mm 0 W/m2
02:09 1.9 °C 1 °C 1016.8 hPa Calm     94% 0 mm 0 W/m2
02:14 1.9 °C 1 °C 1017.2 hPa Calm     94% 0 mm 0 W/m2
02:19 1.8 °C 0.9 °C 1017.2 hPa Calm     94% 0 mm 0 W/m2
02:24 1.8 °C 0.9 °C 1017.2 hPa Calm     94% 0 mm 0 W/m2
02:29 1.8 °C 0.9 °C 1017.2 hPa Calm     94% 0 mm 0 W/m2
02:34 1.8 °C 0.9 °C 1017.5 hPa Calm     94% 0 mm 0 W/m2
02:39 1.9 °C 1 °C 1017.5 hPa Calm     94% 0 mm 0 W/m2
02:44 1.9 °C 1.1 °C 1017.5 hPa Calm     94% 0 mm 0 W/m2
02:48 2 °C 1.2 °C 1017.5 hPa Calm     94.3% 0 mm 0 W/m2
02:54 1.9 °C 1.2 °C 1017.5 hPa Calm     94.8% 0 mm 0 W/m2
02:59 1.9 °C 1.2 °C 1017.5 hPa Calm     95% 0 mm 0 W/m2
03:04 1.8 °C 1.2 °C 1017.5 hPa Calm     95% 0 mm 0 W/m2
03:09 1.8 °C 1.1 °C 1017.8 hPa Calm     94.8% 0 mm 0 W/m2
03:14 1.8 °C 1.1 °C 1017.8 hPa Calm     94.8% 0 mm 0 W/m2
03:19 1.8 °C 1.1 °C 1017.8 hPa Calm     95% 0 mm 0 W/m2
03:24 1.8 °C 1.1 °C 1017.8 hPa Calm     95% 0 mm 0 W/m2
03:29 1.8 °C 1.1 °C 1017.8 hPa Calm     95% 0 mm 0 W/m2
03:34 1.8 °C 1.1 °C 1017.8 hPa Calm     95% 0 mm 0 W/m2
03:39 1.8 °C 1.1 °C 1018.2 hPa Calm     95% 0 mm 0 W/m2
03:44 1.8 °C 1.1 °C 1018.2 hPa Calm     95% 0 mm 0 W/m2
03:49 1.8 °C 1.1 °C 1018.2 hPa Calm     95% 0 mm 0 W/m2
03:54 1.7 °C 1 °C 1018.2 hPa Calm     95% 0 mm 0 W/m2
03:59 1.7 °C 1 °C 1018.2 hPa Calm     95% 0 mm 0 W/m2
04:04 1.7 °C 0.9 °C 1018.2 hPa Calm     95% 0 mm 0 W/m2
04:09 1.6 °C 0.9 °C 1018.2 hPa Calm     95% 0 mm 0 W/m2
04:14 1.6 °C 0.9 °C 1018.2 hPa Calm     95% 0 mm 0 W/m2
04:19 1.6 °C 0.9 °C 1018.5 hPa Calm     95% 0 mm 0 W/m2
04:24 1.6 °C 0.9 °C 1018.5 hPa Calm     95% 0 mm 0 W/m2
04:29 1.7 °C 1 °C 1018.5 hPa Calm     95% 0 mm 0 W/m2
04:34 1.8 °C 1.1 °C 1018.5 hPa Calm     95% 0 mm 0 W/m2
04:39 1.8 °C 1.1 °C 1018.5 hPa Calm     95% 0 mm 0 W/m2
04:44 1.8 °C 1.2 °C 1018.5 hPa Calm     95% 0 mm 0 W/m2
04:49 2 °C 1.3 °C 1018.5 hPa Calm     95% 0 mm 0 W/m2
04:54 2.1 °C 1.4 °C 1018.8 hPa Calm     95% 0 mm 0 W/m2
04:59 2.1 °C 1.3 °C 1018.8 hPa Calm     95% 0 mm 0 W/m2
05:04 2.1 °C 1.4 °C 1018.8 hPa Calm     95% 0 mm 0 W/m2
05:09 2.1 °C 1.4 °C 1018.8 hPa Calm     95% 0 mm 0 W/m2
05:14 2.1 °C 1.4 °C 1018.8 hPa Calm     95% 0 mm 0 W/m2
05:19 2.1 °C 1.4 °C 1018.8 hPa Calm     95% 0 mm 0 W/m2
05:24 2.2 °C 1.5 °C 1018.8 hPa Calm     95% 0 mm 0 W/m2
05:29 2.2 °C 1.5 °C 1018.8 hPa Calm     95% 0 mm 0 W/m2
05:34 2.3 °C 1.6 °C 1018.8 hPa Calm     95% 0 mm 0 W/m2
05:39 2.3 °C 1.6 °C 1018.8 hPa Calm     95% 0 mm 0 W/m2
05:44 2.4 °C 1.7 °C 1018.8 hPa Calm     95% 0 mm 0 W/m2
05:49 2.4 °C 1.7 °C 1019.2 hPa Calm     95% 0 mm 0 W/m2
05:54 2.4 °C 1.7 °C 1019.2 hPa Calm     95% 0 mm 0 W/m2
05:59 2.4 °C 1.7 °C 1019.2 hPa Calm     95% 0 mm 0 W/m2
06:04 2.4 °C 1.7 °C 1019.2 hPa Calm     95% 0 mm 0 W/m2
06:09 2.3 °C 1.6 °C 1019.5 hPa Calm     95% 0 mm 0 W/m2
06:14 2.3 °C 1.6 °C 1019.5 hPa Calm     95% 0 mm 0 W/m2
06:19 2.3 °C 1.6 °C 1019.5 hPa Calm     95% 0 mm 0 W/m2
06:24 2.3 °C 1.6 °C 1019.5 hPa Calm     95% 0 mm 0 W/m2
06:29 2.4 °C 1.7 °C 1019.5 hPa WSW 0.3 km/h 3.2 km/h 95% 0 mm 0 W/m2
06:34 2.4 °C 1.7 °C 1019.5 hPa WSW 0.6 km/h 3.2 km/h 95% 0 mm 0 W/m2
06:39 2.3 °C 1.6 °C 1019.5 hPa WSW 1.8 km/h 4.8 km/h 95% 0 mm 0 W/m2
06:44 2.1 °C 1.4 °C 1019.9 hPa WSW 1.8 km/h 4.8 km/h 95% 0 mm 0 W/m2
06:49 2.1 °C 1.3 °C 1019.9 hPa WSW 1.4 km/h 4.8 km/h 95% 0 mm 0 W/m2
06:54 2 °C 1.3 °C 1019.9 hPa WSW 1.9 km/h 3.2 km/h 95% 0 mm 0 W/m2
06:59 2 °C 1.3 °C 1019.9 hPa WSW 1.3 km/h 3.2 km/h 95% 0 mm 0 W/m2
07:04 2.1 °C 1.4 °C 1019.9 hPa Calm   1.6 km/h 95% 0 mm 0 W/m2
07:09 2.2 °C 1.5 °C 1020.2 hPa Calm     95.6% 0 mm 0 W/m2
07:14 2.7 °C 2.1 °C 1020.2 hPa Calm     95.8% 0 mm 0 W/m2
07:19 2.8 °C 2.2 °C 1020.5 hPa WSW 1.3 km/h 4.8 km/h 96% 0.25 mm 0 W/m2
07:24 2.7 °C 2.1 °C 1020.5 hPa WSW 1.8 km/h 4.8 km/h 95.6% 0.25 mm 0 W/m2
07:29 2.4 °C 1.8 °C 1020.5 hPa WSW 2.3 km/h 4.8 km/h 95.2% 0.25 mm 0 W/m2
07:34 2.3 °C 1.7 °C 1020.5 hPa WSW 1 km/h 4.8 km/h 95.8% 0.25 mm 0 W/m2
07:39 2.2 °C 1.6 °C 1020.5 hPa WSW 2.1 km/h 6.4 km/h 96% 0.25 mm 0 W/m2
07:44 2.2 °C 1.6 °C 1020.5 hPa WSW 1.9 km/h 6.4 km/h 96% 0.25 mm 0 W/m2
07:48 2.3 °C 1.7 °C 1020.5 hPa WSW 2.3 km/h 4.8 km/h 96% 0.25 mm 0 W/m2
07:54 2.3 °C 1.7 °C 1020.5 hPa WSW 2.6 km/h 4.8 km/h 96% 0.25 mm 0 W/m2
07:59 2.3 °C 1.7 °C 1020.9 hPa WSW 2.6 km/h 3.2 km/h 96% 0.25 mm 7 W/m2
08:04 2.3 °C 1.7 °C 1020.9 hPa WSW 1.8 km/h 4.8 km/h 96% 0.25 mm 11 W/m2
08:09 2.3 °C 1.7 °C 1020.9 hPa WSW 1.1 km/h 3.2 km/h 96% 0.25 mm 14 W/m2
08:14 2.3 °C 1.7 °C 1020.9 hPa WSW 1 km/h 3.2 km/h 96% 0.25 mm 16 W/m2
08:19 2.3 °C 1.7 °C 1020.5 hPa WSW 1.4 km/h 4.8 km/h 96% 0 mm 12 W/m2
08:24 2.2 °C 1.7 °C 1020.5 hPa SSW 2.7 km/h 6.4 km/h 96% 0 mm 12 W/m2
08:29 2.2 °C 1.6 °C 1020.5 hPa SE 4.5 km/h 8 km/h 96% 0 mm 14 W/m2
08:34 2.2 °C 1.6 °C 1020.5 hPa ENE 2.4 km/h 8 km/h 96% 0 mm 18 W/m2
08:39 2.2 °C 1.6 °C 1020.5 hPa East 5 km/h 11.3 km/h 96% 0 mm 23 W/m2
08:44 2.2 °C 1.7 °C 1020.5 hPa East 6.6 km/h 14.5 km/h 96% 0 mm 25 W/m2
08:49 2.2 °C 1.7 °C 1020.9 hPa ENE 5.6 km/h 12.9 km/h 96% 0 mm 25 W/m2
08:54 2.2 °C 1.6 °C 1020.9 hPa ESE 3.9 km/h 8 km/h 96% 0 mm 28 W/m2
08:59 2.3 °C 1.7 °C 1020.9 hPa ESE 2.4 km/h 8 km/h 96% 0 mm 28 W/m2
09:04 2.3 °C 1.7 °C 1020.9 hPa East 2.6 km/h 8 km/h 96% 0 mm 33 W/m2
09:08 2.3 °C 1.7 °C 1021.2 hPa East 3.2 km/h 4.8 km/h 96% 0 mm 33 W/m2
09:14 2.3 °C 1.7 °C 1021.2 hPa East 3.9 km/h 6.4 km/h 96% 0 mm 30 W/m2
09:19 2.3 °C 1.7 °C 1021.2 hPa East 1.4 km/h 4.8 km/h 96% 0 mm 35 W/m2
09:24 2.3 °C 1.7 °C 1021.2 hPa East 3.2 km/h 8 km/h 96% 0 mm 39 W/m2
09:29 2.3 °C 1.8 °C 1021.2 hPa East 2.6 km/h 8 km/h 96% 0 mm 44 W/m2
09:34 2.4 °C 1.8 °C 1021.2 hPa East 1.8 km/h 8 km/h 96% 0 mm 44 W/m2
09:39 2.4 °C 1.8 °C 1021.2 hPa ENE 4.5 km/h 8 km/h 96% 0 mm 44 W/m2
09:44 2.4 °C 1.8 °C 1021.2 hPa East 3.2 km/h 11.3 km/h 96% 0 mm 49 W/m2
09:49 2.4 °C 1.8 °C 1021.2 hPa ENE 3.5 km/h 11.3 km/h 96% 0 mm 53 W/m2
09:54 2.4 °C 1.8 °C 1021.6 hPa ENE 3.9 km/h 8 km/h 96% 0 mm 53 W/m2
09:59 2.4 °C 1.8 °C 1021.6 hPa East 2.7 km/h 8 km/h 96% 0 mm 53 W/m2
10:04 2.5 °C 1.9 °C 1021.6 hPa ENE 3.2 km/h 8 km/h 96% 0 mm 53 W/m2
10:09 2.6 °C 1.9 °C 1021.6 hPa ENE 4 km/h 8 km/h 96% 0 mm 53 W/m2
10:14 2.5 °C 1.9 °C 1021.6 hPa NE 3.2 km/h 8 km/h 96% 0 mm 54 W/m2
10:19 2.5 °C 1.9 °C 1021.6 hPa NE 1.9 km/h 4.8 km/h 96% 0 mm 56 W/m2
10:24 2.6 °C 1.9 °C 1021.6 hPa NE 1.4 km/h 4.8 km/h 96% 0 mm 69 W/m2
10:29 2.6 °C 2 °C 1021.6 hPa East 3.9 km/h 9.7 km/h 96% 0 mm 67 W/m2
10:34 2.7 °C 2.1 °C 1021.6 hPa East 5 km/h 9.7 km/h 96% 0 mm 69 W/m2
10:39 2.7 °C 2.1 °C 1021.6 hPa East 2.7 km/h 8 km/h 96% 0 mm 72 W/m2
10:44 2.7 °C 2.1 °C 1021.9 hPa East 2.6 km/h 8 km/h 96% 0 mm 74 W/m2
10:49 2.8 °C 2.2 °C 1021.6 hPa East 2.1 km/h 8 km/h 96% 0 mm 70 W/m2
10:54 2.8 °C 2.2 °C 1021.6 hPa East 3.5 km/h 8 km/h 96% 0 mm 69 W/m2
10:59 2.8 °C 2.2 °C 1021.9 hPa East 1.4 km/h 4.8 km/h 96% 0 mm 70 W/m2
11:04 2.8 °C 2.2 °C 1021.9 hPa East 2.6 km/h 6.4 km/h 96% 0 mm 76 W/m2
11:09 2.7 °C 2.1 °C 1021.9 hPa ESE 3.5 km/h 6.4 km/h 96% 0 mm 76 W/m2
11:14 2.6 °C 2 °C 1021.6 hPa ESE 0.8 km/h 6.4 km/h 96% 0 mm 70 W/m2
11:19 2.6 °C 2 °C 1021.6 hPa ESE 0.8 km/h 3.2 km/h 96% 0 mm 69 W/m2
11:24 2.6 °C 2 °C 1021.9 hPa ESE 2.7 km/h 6.4 km/h 96% 0 mm 67 W/m2
11:29 2.7 °C 2.1 °C 1021.9 hPa ESE 3.9 km/h 4.8 km/h 96% 0 mm 74 W/m2
11:34 2.7 °C 2.1 °C 1021.9 hPa ESE 1.3 km/h 6.4 km/h 96% 0 mm 77 W/m2
11:39 2.6 °C 2 °C 1021.6 hPa ESE 2.7 km/h 6.4 km/h 96% 0 mm 79 W/m2
11:44 2.6 °C 2 °C 1021.6 hPa ESE 2.7 km/h 6.4 km/h 96% 0 mm 84 W/m2
11:49 2.7 °C 2.1 °C 1021.9 hPa ESE 3.5 km/h 6.4 km/h 96% 0 mm 76 W/m2
11:54 2.8 °C 2.3 °C 1021.9 hPa ESE 2.1 km/h 6.4 km/h 96% 0 mm 79 W/m2
11:59 2.9 °C 2.3 °C 1021.6 hPa ESE 3.2 km/h 6.4 km/h 96% 0 mm 88 W/m2
12:04 3 °C 2.4 °C 1021.6 hPa ESE 2.9 km/h 6.4 km/h 96% 0 mm 84 W/m2
12:09 3.1 °C 2.5 °C 1021.6 hPa ESE 1.9 km/h 4.8 km/h 96% 0 mm 83 W/m2
12:14 3.2 °C 2.6 °C 1021.6 hPa ESE 1.9 km/h 4.8 km/h 96% 0 mm 76 W/m2
12:19 3.2 °C 2.6 °C 1021.6 hPa ESE 1.6 km/h 4.8 km/h 96% 0 mm 77 W/m2
12:24 3.3 °C 2.7 °C 1021.6 hPa Calm   1.6 km/h 96% 0 mm 69 W/m2
12:28 3.3 °C 2.7 °C 1021.6 hPa ESE 2.3 km/h 4.8 km/h 96% 0 mm 62 W/m2
12:34 3.2 °C 2.6 °C 1021.6 hPa ENE 2.1 km/h 6.4 km/h 96% 0 mm 58 W/m2
12:39 3.2 °C 2.6 °C 1021.6 hPa ENE 2.6 km/h 6.4 km/h 96% 0 mm 54 W/m2
12:44 3.3 °C 2.7 °C 1021.6 hPa ENE 2.1 km/h 4.8 km/h 96% 0 mm 56 W/m2
12:49 3.3 °C 2.7 °C 1021.6 hPa ENE 0.8 km/h 3.2 km/h 96% 0 mm 56 W/m2
12:54 3.4 °C 2.8 °C 1021.6 hPa ENE 1.3 km/h 4.8 km/h 96% 0 mm 60 W/m2
12:59 3.4 °C 2.8 °C 1021.6 hPa ENE 0.3 km/h 3.2 km/h 96% 0 mm 62 W/m2
13:04 3.4 °C 2.8 °C 1021.9 hPa Calm     96% 0 mm 62 W/m2
13:09 3.3 °C 2.8 °C 1021.6 hPa ENE 1.9 km/h 4.8 km/h 96% 0 mm 62 W/m2
13:14 3.3 °C 2.7 °C 1021.9 hPa SE 1.9 km/h 8 km/h 96% 0 mm 60 W/m2
13:19 3.3 °C 2.7 °C 1021.9 hPa SE 1.9 km/h 4.8 km/h 96% 0 mm 56 W/m2
13:24 3.3 °C 2.7 °C 1021.9 hPa SE 1.6 km/h 4.8 km/h 96% 0 mm 54 W/m2
13:29 3.4 °C 2.8 °C 1021.6 hPa SE 0.3 km/h 3.2 km/h 96% 0 mm 53 W/m2
13:34 3.4 °C 2.8 °C 1021.6 hPa SE 1.9 km/h 3.2 km/h 96% 0 mm 51 W/m2
13:39 3.3 °C 2.8 °C 1021.6 hPa SE 3.5 km/h 6.4 km/h 96% 0 mm 51 W/m2
13:44 3.3 °C 2.7 °C 1021.6 hPa SE 3.2 km/h 6.4 km/h 96% 0 mm 44 W/m2
13:49 3.3 °C 2.7 °C 1021.6 hPa SE 3.5 km/h 6.4 km/h 96% 0 mm 47 W/m2
13:54 3.3 °C 2.7 °C 1021.6 hPa SE 2.4 km/h 6.4 km/h 96% 0 mm 47 W/m2
13:59 3.4 °C 2.8 °C 1021.6 hPa SE 2.3 km/h 6.4 km/h 96% 0 mm 40 W/m2
14:04 3.6 °C 2.9 °C 1021.6 hPa SE 1 km/h 4.8 km/h 96% 0 mm 37 W/m2
14:09 3.7 °C 3.1 °C 1021.6 hPa SE 3.4 km/h 6.4 km/h 96% 0 mm 39 W/m2
14:14 3.7 °C 3.1 °C 1021.6 hPa SE 0.3 km/h 3.2 km/h 96% 0 mm 39 W/m2
14:19 3.7 °C 3.1 °C 1021.6 hPa SE 1.3 km/h 4.8 km/h 96% 0 mm 30 W/m2
14:24 3.6 °C 2.9 °C 1021.6 hPa SE 1.1 km/h 4.8 km/h 96% 0 mm 19 W/m2
14:29 3.6 °C 2.9 °C 1021.6 hPa SE 3.1 km/h 6.4 km/h 96% 0 mm 25 W/m2
14:34 3.6 °C 3 °C 1021.6 hPa SE 1 km/h 4.8 km/h 96% 0 mm 18 W/m2
14:39 3.6 °C 3 °C 1021.6 hPa SE 3.9 km/h 6.4 km/h 96% 0 mm 14 W/m2
14:44 3.6 °C 3 °C 1021.2 hPa SE 2.6 km/h 4.8 km/h 96% 0 mm 11 W/m2
14:49 3.6 °C 3 °C 1021.6 hPa SE 3.2 km/h 6.4 km/h 96% 0 mm 12 W/m2
14:54 3.6 °C 3 °C 1021.6 hPa SE 2.1 km/h 6.4 km/h 96% 0 mm 18 W/m2
14:59 3.4 °C 2.8 °C 1021.6 hPa SE 2.9 km/h 8 km/h 96% 0 mm 16 W/m2
15:04 3.4 °C 2.8 °C 1021.6 hPa ESE 3.1 km/h 8 km/h 96% 0 mm 12 W/m2
15:09 3.4 °C 2.8 °C 1021.6 hPa ESE 2.1 km/h 4.8 km/h 96% 0 mm 9 W/m2
15:14 3.5 °C 2.9 °C 1021.6 hPa ESE 1.4 km/h 4.8 km/h 96% 0 mm 9 W/m2
15:19 3.4 °C 2.8 °C 1021.9 hPa ESE 1.4 km/h 4.8 km/h 96% 0 mm 5 W/m2
15:24 3.4 °C 2.8 °C 1021.9 hPa ESE 2.6 km/h 6.4 km/h 96% 0 mm 5 W/m2
15:29 3.3 °C 2.7 °C 1021.6 hPa ESE 3.2 km/h 6.4 km/h 96% 0 mm 5 W/m2
15:34 3.3 °C 2.7 °C 1021.6 hPa ESE 2.1 km/h 6.4 km/h 96% 0 mm 0 W/m2
15:39 3.3 °C 2.7 °C 1021.9 hPa ESE 1.4 km/h 4.8 km/h 96% 0 mm 0 W/m2
15:44 3.4 °C 2.8 °C 1021.9 hPa ESE 1.4 km/h 6.4 km/h 96% 0 mm 0 W/m2
15:49 3.4 °C 2.8 °C 1021.9 hPa ESE 2.6 km/h 6.4 km/h 96% 0 mm 0 W/m2
15:54 3.3 °C 2.7 °C 1021.9 hPa ESE 2.7 km/h 4.8 km/h 96% 0 mm 0 W/m2
15:59 3.4 °C 2.8 °C 1021.9 hPa ESE 2.7 km/h 6.4 km/h 96% 0 mm 0 W/m2
16:03 3.4 °C 2.8 °C 1021.9 hPa ESE 4 km/h 4.8 km/h 96% 0 mm 0 W/m2
16:05 3.3 °C 2.7 °C 1021.9 hPa SE 3.2 km/h 4.8 km/h 96% 0 mm 0 W/m2
16:14 3.4 °C 2.8 °C 1022.2 hPa SE 2.1 km/h 6.4 km/h 96% 0 mm 0 W/m2
16:19 3.3 °C 2.7 °C 1022.2 hPa SE 3.9 km/h 6.4 km/h 96% 0 mm 0 W/m2
16:24 3.3 °C 2.7 °C 1022.2 hPa SE 1.3 km/h 4.8 km/h 96% 0 mm 0 W/m2
16:29 3.4 °C 2.8 °C 1022.2 hPa SE 2.4 km/h 4.8 km/h 96% 0 mm 0 W/m2
16:34 3.4 °C 2.8 °C 1022.2 hPa SE 0.8 km/h 3.2 km/h 96% 0 mm 0 W/m2
16:39 3.4 °C 2.8 °C 1022.2 hPa SE 1.3 km/h 3.2 km/h 96% 0 mm 0 W/m2
16:44 3.5 °C 2.9 °C 1022.2 hPa SE 1.1 km/h 3.2 km/h 96.2% 0 mm 0 W/m2
16:49 3.5 °C 3 °C 1022.2 hPa SE 2.1 km/h 6.4 km/h 96.4% 0 mm 0 W/m2
16:54 3.6 °C 3.2 °C 1022.2 hPa SE 4.2 km/h 6.4 km/h 97% 0 mm 0 W/m2
16:59 3.5 °C 3.1 °C 1022.2 hPa SE 2.1 km/h 6.4 km/h 96.6% 0 mm 0 W/m2
17:04 3.5 °C 3.1 °C 1022.2 hPa SE 3.4 km/h 8 km/h 96.8% 0 mm 0 W/m2
17:09 3.6 °C 3.2 °C 1022.2 hPa SE 3.5 km/h 6.4 km/h 97% 0 mm 0 W/m2
17:14 3.6 °C 3.1 °C 1022.2 hPa SE 3.4 km/h 6.4 km/h 96.2% 0 mm 0 W/m2
17:19 3.7 °C 3.1 °C 1022.2 hPa ESE 4.5 km/h 9.7 km/h 96.2% 0 mm 0 W/m2
17:24 3.7 °C 3.1 °C 1022.2 hPa SE 5.1 km/h 9.7 km/h 96% 0 mm 0 W/m2
17:29 3.7 °C 3.2 °C 1022.2 hPa SE 5.3 km/h 11.3 km/h 96.6% 0 mm 0 W/m2
17:34 3.7 °C 3.2 °C 1022.2 hPa SSE 3.7 km/h 8 km/h 96.4% 0 mm 0 W/m2
17:39 3.8 °C 3.2 °C 1022.2 hPa SE 5.3 km/h 9.7 km/h 96% 0 mm 0 W/m2
17:44 3.7 °C 3.1 °C 1022.2 hPa SE 4.2 km/h 9.7 km/h 96% 0 mm 0 W/m2
17:49 3.7 °C 3.1 °C 1022.2 hPa SE 3.9 km/h 8 km/h 96% 0 mm 0 W/m2
17:54 3.7 °C 3.2 °C 1022.2 hPa SE 3.9 km/h 8 km/h 96.4% 0 mm 0 W/m2
17:59 3.7 °C 3.1 °C 1022.2 hPa ESE 4.3 km/h 11.3 km/h 96% 0 mm 0 W/m2
18:04 3.8 °C 3.2 °C 1022.2 hPa ESE 3.2 km/h 6.4 km/h 96% 0 mm 0 W/m2
18:09 3.8 °C 3.2 °C 1022.2 hPa ESE 4.3 km/h 6.4 km/h 96% 0 mm 0 W/m2
18:14 3.8 °C 3.3 °C 1022.6 hPa ESE 4.8 km/h 8 km/h 96.2% 0 mm 0 W/m2
18:19 3.8 °C 3.2 °C 1022.6 hPa SE 2.6 km/h 8 km/h 96% 0 mm 0 W/m2
18:24 3.8 °C 3.3 °C 1022.6 hPa SSE 2.7 km/h 6.4 km/h 96.2% 0 mm 0 W/m2
18:29 3.9 °C 3.5 °C 1022.6 hPa SSE 2.6 km/h 6.4 km/h 97% 0 mm 0 W/m2
18:34 3.9 °C 3.5 °C 1022.6 hPa SSE 4.8 km/h 8 km/h 97% 0 mm 0 W/m2
18:39 3.9 °C 3.5 °C 1022.6 hPa SSE 2.7 km/h 6.4 km/h 97% 0 mm 0 W/m2
18:44 3.9 °C 3.5 °C 1022.6 hPa SSE 4.5 km/h 8 km/h 96.8% 0 mm 0 W/m2
18:49 4 °C 3.6 °C 1022.6 hPa SE 5.1 km/h 11.3 km/h 96.8% 0 mm 0 W/m2
18:54 3.9 °C 3.5 °C 1022.6 hPa SE 7.1 km/h 12.9 km/h 96.8% 0 mm 0 W/m2
18:59 3.8 °C 3.3 °C 1022.6 hPa SSE 8.2 km/h 12.9 km/h 96.4% 0 mm 0 W/m2
19:04 3.8 °C 3.2 °C 1022.6 hPa SE 5.8 km/h 12.9 km/h 96% 0 mm 0 W/m2
19:09 3.8 °C 3.3 °C 1022.6 hPa ESE 6 km/h 11.3 km/h 96.4% 0 mm 0 W/m2
19:14 3.8 °C 3.3 °C 1022.6 hPa SE 5.6 km/h 12.9 km/h 96.4% 0 mm 0 W/m2
19:19 3.8 °C 3.2 °C 1022.6 hPa SE 4.7 km/h 14.5 km/h 96% 0 mm 0 W/m2
19:24 3.8 °C 3.2 °C 1022.6 hPa SE 4.2 km/h 8 km/h 96% 0 mm 0 W/m2
19:29 3.7 °C 3.1 °C 1022.6 hPa SSE 5.6 km/h 9.7 km/h 96% 0 mm 0 W/m2
19:34 3.7 °C 3.1 °C 1022.9 hPa SE 6 km/h 12.9 km/h 96% 0 mm 0 W/m2
19:39 3.8 °C 3.2 °C 1022.9 hPa SE 3.4 km/h 11.3 km/h 96% 0 mm 0 W/m2
19:44 3.8 °C 3.2 °C 1022.9 hPa SE 3.4 km/h 8 km/h 96% 0 mm 0 W/m2
19:49 3.8 °C 3.2 °C 1022.9 hPa SE 5.6 km/h 8 km/h 96% 0 mm 0 W/m2
19:54 3.9 °C 3.4 °C 1022.9 hPa SE 5.3 km/h 11.3 km/h 96.8% 0 mm 0 W/m2
19:59 3.9 °C 3.5 °C 1022.9 hPa SE 5 km/h 9.7 km/h 97% 0 mm 0 W/m2
20:04 3.9 °C 3.5 °C 1022.9 hPa SE 5.1 km/h 11.3 km/h 97% 0 mm 0 W/m2
20:09 3.9 °C 3.5 °C 1022.9 hPa SSE 4 km/h 11.3 km/h 97% 0 mm 0 W/m2
20:14 3.9 °C 3.5 °C 1022.9 hPa ESE 5 km/h 11.3 km/h 97% 0 mm 0 W/m2
20:19 3.9 °C 3.5 °C 1022.9 hPa East 3.5 km/h 11.3 km/h 97% 0 mm 0 W/m2
20:23 3.9 °C 3.5 °C 1022.9 hPa ESE 3.5 km/h 8 km/h 97% 0 mm 0 W/m2
20:29 3.9 °C 3.5 °C 1023.2 hPa SSE 4.7 km/h 9.7 km/h 97% 0 mm 0 W/m2
20:34 3.9 °C 3.4 °C 1023.2 hPa SE 6 km/h 11.3 km/h 96.6% 0 mm 0 W/m2
20:39 4 °C 3.4 °C 1023.2 hPa SE 4.3 km/h 11.3 km/h 96% 0 mm 0 W/m2
20:44 4 °C 3.4 °C 1023.2 hPa SE 4.8 km/h 14.5 km/h 96% 0 mm 0 W/m2
20:49 4 °C 3.4 °C 1023.2 hPa SE 4 km/h 14.5 km/h 96% 0 mm 0 W/m2
20:54 4.1 °C 3.4 °C 1023.2 hPa SE 2.7 km/h 6.4 km/h 96% 0 mm 0 W/m2
20:59 4.1 °C 3.5 °C 1023.2 hPa SE 1.4 km/h 6.4 km/h 96% 0 mm 0 W/m2
21:04 4.1 °C 3.5 °C 1023.2 hPa SE 2.9 km/h 6.4 km/h 96% 0 mm 0 W/m2
21:09 4.2 °C 3.6 °C 1023.2 hPa SE 3.4 km/h 8 km/h 96.4% 0 mm 0 W/m2
21:14 4.1 °C 3.5 °C 1023.2 hPa ESE 5.6 km/h 12.9 km/h 96% 0 mm 0 W/m2
21:19 4.1 °C 3.5 °C 1023.2 hPa SE 6.1 km/h 12.9 km/h 96% 0 mm 0 W/m2
21:24 4.1 °C 3.5 °C 1023.2 hPa SE 5.1 km/h 12.9 km/h 96% 0 mm 0 W/m2
21:29 4 °C 3.4 °C 1023.2 hPa SSE 7.1 km/h 12.9 km/h 96% 0 mm 0 W/m2
21:34 3.9 °C 3.4 °C 1023.2 hPa SSE 3.1 km/h 9.7 km/h 96.4% 0 mm 0 W/m2
21:39 3.9 °C 3.4 °C 1023.2 hPa SSE 0.8 km/h 3.2 km/h 96.4% 0 mm 0 W/m2
21:44 4.1 °C 3.4 °C 1023.2 hPa SSE 0.3 km/h 1.6 km/h 96% 0 mm 0 W/m2
21:49 4.1 °C 3.5 °C 1023.2 hPa SSE 0.3 km/h 1.6 km/h 96% 0 mm 0 W/m2
21:54 4.1 °C 3.5 °C 1023.2 hPa SSE 0.8 km/h 3.2 km/h 96% 0 mm 0 W/m2
21:59 4.1 °C 3.5 °C 1023.2 hPa SSE 1.3 km/h 3.2 km/h 96% 0 mm 0 W/m2
22:04 4.2 °C 3.7 °C 1023.2 hPa Calm   1.6 km/h 96.8% 0 mm 0 W/m2
22:09 4.2 °C 3.6 °C 1023.2 hPa SSE 1 km/h 3.2 km/h 96% 0 mm 0 W/m2
22:14 4.2 °C 3.7 °C 1023.2 hPa SSE 1.1 km/h 3.2 km/h 96% 0 mm 0 W/m2
22:19 4.3 °C 3.7 °C 1023.2 hPa SSE 0.6 km/h 3.2 km/h 96% 0 mm 0 W/m2
22:24 4.3 °C 3.7 °C 1023.2 hPa SSE 0.3 km/h 1.6 km/h 96% 0 mm 0 W/m2
22:29 4.3 °C 3.7 °C 1023.2 hPa SSE 0.3 km/h 1.6 km/h 96% 0 mm 0 W/m2
22:34 4.3 °C 3.7 °C 1023.2 hPa Calm   1.6 km/h 96% 0 mm 0 W/m2
22:39 4.4 °C 3.8 °C 1023.2 hPa Calm     96% 0 mm 0 W/m2
22:44 4.4 °C 3.8 °C 1023.2 hPa SSE 1.6 km/h 4.8 km/h 96% 0 mm 0 W/m2
22:49 4.4 °C 3.8 °C 1023.2 hPa SSE 1.1 km/h 4.8 km/h 96% 0 mm 0 W/m2
22:54 4.4 °C 3.8 °C 1023.2 hPa SSE 3.2 km/h 4.8 km/h 96% 0 mm 0 W/m2
22:59 4.4 °C 3.8 °C 1023.2 hPa ESE 2.7 km/h 6.4 km/h 96% 0 mm 0 W/m2
23:04 4.4 °C 3.8 °C 1023.2 hPa ESE 3.5 km/h 4.8 km/h 96% 0 mm 0 W/m2
23:09 4.4 °C 3.8 °C 1023.2 hPa ESE 2.3 km/h 6.4 km/h 96% 0 mm 0 W/m2
23:14 4.4 °C 3.8 °C 1022.9 hPa ESE 0.6 km/h 4.8 km/h 96% 0 mm 0 W/m2
23:19 4.5 °C 3.9 °C 1022.9 hPa ESE 1.4 km/h 6.4 km/h 96% 0 mm 0 W/m2
23:24 4.5 °C 3.9 °C 1022.9 hPa East 1 km/h 4.8 km/h 96% 0 mm 0 W/m2
23:29 4.5 °C 3.9 °C 1023.2 hPa East 3.2 km/h 6.4 km/h 96% 0 mm 0 W/m2
23:34 4.5 °C 3.9 °C 1022.9 hPa East 3.4 km/h 6.4 km/h 96% 0 mm 0 W/m2
23:39 4.5 °C 3.9 °C 1022.9 hPa East 3.1 km/h 6.4 km/h 96% 0 mm 0 W/m2
23:44 4.4 °C 3.8 °C 1022.9 hPa East 3.5 km/h 6.4 km/h 96% 0 mm 0 W/m2
23:49 4.4 °C 3.8 °C 1022.9 hPa East 2.9 km/h 6.4 km/h 96% 0 mm 0 W/m2
23:54 4.4 °C 3.8 °C 1022.9 hPa East 3.1 km/h 6.4 km/h 96% 0 mm 0 W/m2
23:59 4.4 °C 3.8 °C 1022.9 hPa East 2.1 km/h 6.4 km/h 96% 0 mm 0 W/m2
Bath Spa Weather
Compliments of Weather Underground - 2 mb